sensor_id;sensor_type;location;lat;lon;timestamp;pressure;altitude;pressure_sealevel;temperature;humidity
55858;BME280;41779;52.360;31.026;2024-01-10T00:02:47;1032.3;;;-1.5;71.5
55858;BME280;41779;52.360;31.026;2024-01-10T00:08:17;1032.2;;;-1.5;71.7
55858;BME280;41779;52.360;31.026;2024-01-10T00:13:05;1032.2;;;-1.5;71.8
55858;BME280;41779;52.360;31.026;2024-01-10T00:18:09;1032.1;;;-1.5;72.1
55858;BME280;41779;52.360;31.026;2024-01-10T00:22:37;1032.2;;;-1.5;72.5
55858;BME280;41779;52.360;31.026;2024-01-10T00:27:55;1032.3;;;-1.5;72.5
55858;BME280;41779;52.360;31.026;2024-01-10T00:33:19;1032.3;;;-1.4;72.1
55858;BME280;41779;52.360;31.026;2024-01-10T00:37:53;1032.3;;;-1.5;72.3
55858;BME280;41779;52.360;31.026;2024-01-10T00:42:41;1032.4;;;-1.5;72.4
55858;BME280;41779;52.360;31.026;2024-01-10T00:47:57;1032.4;;;-1.4;72.2
55858;BME280;41779;52.360;31.026;2024-01-10T00:52:29;1032.3;;;-1.4;72.3
55858;BME280;41779;52.360;31.026;2024-01-10T00:58:17;1032.2;;;-1.4;72.3
55858;BME280;41779;52.360;31.026;2024-01-10T01:02:47;1032;;;-1.3;72.5
55858;BME280;41779;52.360;31.026;2024-01-10T01:08:07;1032;;;-1.3;72.9
55858;BME280;41779;52.360;31.026;2024-01-10T01:12:49;1031.9;;;-1.2;72.9
55858;BME280;41779;52.360;31.026;2024-01-10T01:18:07;1031.9;;;-1.2;73
55858;BME280;41779;52.360;31.026;2024-01-10T01:23:15;1031.9;;;-1.2;73.4
55858;BME280;41779;52.360;31.026;2024-01-10T01:27:52;1031.8;;;-1.1;73.3
55858;BME280;41779;52.360;31.026;2024-01-10T01:32:37;1031.7;;;-1.1;73.1
55858;BME280;41779;52.360;31.026;2024-01-10T01:37:29;1031.7;;;-1.1;73.2
55858;BME280;41779;52.360;31.026;2024-01-10T01:42:37;1031.7;;;-1.1;73.2
55858;BME280;41779;52.360;31.026;2024-01-10T01:47:57;1031.7;;;-1.1;73.3
55858;BME280;41779;52.360;31.026;2024-01-10T01:52:47;1031.6;;;-1;73.5
55858;BME280;41779;52.360;31.026;2024-01-10T01:58:05;1031.5;;;-1;73.3
55858;BME280;41779;52.360;31.026;2024-01-10T02:02:49;1031.5;;;-1;73.5
55858;BME280;41779;52.360;31.026;2024-01-10T02:08:09;1031.4;;;-0.9;73.2
55858;BME280;41779;52.360;31.026;2024-01-10T02:13:17;1031.4;;;-0.9;73.2
55858;BME280;41779;52.360;31.026;2024-01-10T02:17:53;1031.3;;;-0.9;73.5
55858;BME280;41779;52.360;31.026;2024-01-10T02:22:29;1031.3;;;-0.9;73.6
55858;BME280;41779;52.360;31.026;2024-01-10T02:27:39;1031.2;;;-0.8;73.6
55858;BME280;41779;52.360;31.026;2024-01-10T02:32:33;1031.2;;;-0.8;73.6
55858;BME280;41779;52.360;31.026;2024-01-10T02:38:17;1031.2;;;-0.7;73.5
55858;BME280;41779;52.360;31.026;2024-01-10T02:42:45;1031.1;;;-0.7;73.6
55858;BME280;41779;52.360;31.026;2024-01-10T02:48:08;1031.1;;;-0.6;73.5
55858;BME280;41779;52.360;31.026;2024-01-10T02:52:57;1031;;;-0.6;73.4
55858;BME280;41779;52.360;31.026;2024-01-10T02:58:07;1030.9;;;-0.6;73.3
55858;BME280;41779;52.360;31.026;2024-01-10T03:03:15;1030.8;;;-0.6;73.5
55858;BME280;41779;52.360;31.026;2024-01-10T03:07:51;1030.8;;;-0.5;73.7
55858;BME280;41779;52.360;31.026;2024-01-10T03:12:35;1030.8;;;-0.5;73.6
55858;BME280;41779;52.360;31.026;2024-01-10T03:17:37;1030.7;;;-0.5;73.8
55858;BME280;41779;52.360;31.026;2024-01-10T03:22:51;1030.7;;;-0.5;74
55858;BME280;41779;52.360;31.026;2024-01-10T03:28:15;1030.7;;;-0.4;74.2
55858;BME280;41779;52.360;31.026;2024-01-10T03:32:59;1030.7;;;-0.4;74
55858;BME280;41779;52.360;31.026;2024-01-10T03:38:05;1030.7;;;-0.3;73.9
55858;BME280;41779;52.360;31.026;2024-01-10T03:42:27;1030.7;;;-0.3;74.1
55858;BME280;41779;52.360;31.026;2024-01-10T03:48:07;1030.8;;;-0.2;73.9
55858;BME280;41779;52.360;31.026;2024-01-10T03:53:12;1030.8;;;-0.2;73.7
55858;BME280;41779;52.360;31.026;2024-01-10T03:57:53;1030.8;;;-0.2;73.7
55858;BME280;41779;52.360;31.026;2024-01-10T04:02:29;1030.8;;;-0.1;73.9
55858;BME280;41779;52.360;31.026;2024-01-10T04:07:39;1030.7;;;-0.1;73.8
55858;BME280;41779;52.360;31.026;2024-01-10T04:12:29;1030.7;;;-0.1;73.8
55858;BME280;41779;52.360;31.026;2024-01-10T04:18:13;1030.6;;;0;73.9
55858;BME280;41779;52.360;31.026;2024-01-10T04:22:59;1030.6;;;0;74.1
55858;BME280;41779;52.360;31.026;2024-01-10T04:28:05;1030.7;;;0;74
55858;BME280;41779;52.360;31.026;2024-01-10T04:32:39;1030.8;;;0;74.2
55858;BME280;41779;52.360;31.026;2024-01-10T04:38:07;1030.8;;;0.1;74.1
55858;BME280;41779;52.360;31.026;2024-01-10T04:43:13;1030.8;;;0;74.4
55858;BME280;41779;52.360;31.026;2024-01-10T04:47:53;1030.8;;;0.1;74.6
55858;BME280;41779;52.360;31.026;2024-01-10T04:53:05;1030.8;;;0.1;74.6
55858;BME280;41779;52.360;31.026;2024-01-10T04:57:27;1030.8;;;0.2;74.3
55858;BME280;41779;52.360;31.026;2024-01-10T05:02:49;1030.8;;;0.2;74.5
55858;BME280;41779;52.360;31.026;2024-01-10T05:08:13;1030.8;;;0.2;74.7
55858;BME280;41779;52.360;31.026;2024-01-10T05:12:59;1030.8;;;0.2;74.8
55858;BME280;41779;52.360;31.026;2024-01-10T05:18:06;1030.7;;;0.3;74.8
55858;BME280;41779;52.360;31.026;2024-01-10T05:22:57;1030.7;;;0.3;74.8
55858;BME280;41779;52.360;31.026;2024-01-10T05:28:05;1030.6;;;0.3;75
55858;BME280;41779;52.360;31.026;2024-01-10T05:33:13;1030.6;;;0.4;74.8
55858;BME280;41779;52.360;31.026;2024-01-10T05:37:27;1030.7;;;0.5;74.4
55858;BME280;41779;52.360;31.026;2024-01-10T05:42:35;1030.8;;;0.5;74.4
55858;BME280;41779;52.360;31.026;2024-01-10T05:47:33;1030.8;;;0.5;74.4
55858;BME280;41779;52.360;31.026;2024-01-10T05:52:39;1030.8;;;0.5;74.4
55858;BME280;41779;52.360;31.026;2024-01-10T05:58:13;1030.8;;;0.5;74.4
55858;BME280;41779;52.360;31.026;2024-01-10T06:02:43;1031;;;0.5;74.5
55858;BME280;41779;52.360;31.026;2024-01-10T06:08:03;1031.1;;;0.5;74.5
55858;BME280;41779;52.360;31.026;2024-01-10T06:12:49;1031.2;;;0.6;74.6
55858;BME280;41779;52.360;31.026;2024-01-10T06:17:29;1031.3;;;0.7;74.5
55858;BME280;41779;52.360;31.026;2024-01-10T06:23:15;1031.3;;;0.8;74.5
55858;BME280;41779;52.360;31.026;2024-01-10T06:27:37;1031.3;;;0.8;74.3
55858;BME280;41779;52.360;31.026;2024-01-10T06:32:49;1031.2;;;0.9;74.1
55858;BME280;41779;52.360;31.026;2024-01-10T06:37:37;1031.1;;;0.9;74.1
55858;BME280;41779;52.360;31.026;2024-01-10T06:42:59;1031.1;;;1;73.9
55858;BME280;41779;52.360;31.026;2024-01-10T06:47:55;1031.1;;;1;73.9
55858;BME280;41779;52.360;31.026;2024-01-10T06:52:39;1031.1;;;1.1;74
55858;BME280;41779;52.360;31.026;2024-01-10T06:58:05;1031.1;;;1.1;73.9
55858;BME280;41779;52.360;31.026;2024-01-10T07:02:49;1031.1;;;1.2;73.5
55858;BME280;41779;52.360;31.026;2024-01-10T07:07:51;1031.1;;;1.2;73.5
55858;BME280;41779;52.360;31.026;2024-01-10T07:13:13;1031.1;;;1.2;73.5
55858;BME280;41779;52.360;31.026;2024-01-10T07:17:35;1031;;;1.3;73.6
55858;BME280;41779;52.360;31.026;2024-01-10T07:22:49;1031;;;1.3;73.6
55858;BME280;41779;52.360;31.026;2024-01-10T07:27:37;1031;;;1.4;73.4
55858;BME280;41779;52.360;31.026;2024-01-10T07:33:01;1031;;;1.5;73.3
55858;BME280;41779;52.360;31.026;2024-01-10T07:38:15;1031;;;1.5;73
55858;BME280;41779;52.360;31.026;2024-01-10T07:42:31;1031;;;1.5;72.8
55858;BME280;41779;52.360;31.026;2024-01-10T07:48:06;1030.9;;;1.6;72.7
55858;BME280;41779;52.360;31.026;2024-01-10T07:52:42;1030.9;;;1.6;72.5
55858;BME280;41779;52.360;31.026;2024-01-10T07:57:27;1030.9;;;1.7;72.2
55858;BME280;41779;52.360;31.026;2024-01-10T08:03:13;1030.8;;;1.7;72
55858;BME280;41779;52.360;31.026;2024-01-10T08:07:51;1030.8;;;1.7;72
55858;BME280;41779;52.360;31.026;2024-01-10T08:12:37;1030.8;;;1.8;71.7
55858;BME280;41779;52.360;31.026;2024-01-10T08:17:29;1030.8;;;1.8;71.6
55858;BME280;41779;52.360;31.026;2024-01-10T08:23:01;1030.9;;;1.8;71.8
55858;BME280;41779;52.360;31.026;2024-01-10T08:28:15;1030.9;;;1.9;71.8
55858;BME280;41779;52.360;31.026;2024-01-10T08:33:01;1031;;;2;71.4
55858;BME280;41779;52.360;31.026;2024-01-10T08:38:05;1031;;;2.1;71.3
55858;BME280;41779;52.360;31.026;2024-01-10T08:42:39;1031;;;2.1;71.2
55858;BME280;41779;52.360;31.026;2024-01-10T08:47:59;1031;;;2.1;71.1
55858;BME280;41779;52.360;31.026;2024-01-10T08:53:13;1031.1;;;2.2;71.2
55858;BME280;41779;52.360;31.026;2024-01-10T08:57:51;1031.1;;;2.2;71.2
55858;BME280;41779;52.360;31.026;2024-01-10T09:02:27;1031.1;;;2.2;71.1
55858;BME280;41779;52.360;31.026;2024-01-10T09:07:29;1031.1;;;2.2;71.2
55858;BME280;41779;52.360;31.026;2024-01-10T09:12:53;1031.1;;;2.2;71.3
55858;BME280;41779;52.360;31.026;2024-01-10T09:18:17;1031.1;;;2.3;71.2
55858;BME280;41779;52.360;31.026;2024-01-10T09:23:01;1031.1;;;2.3;71.1
55858;BME280;41779;52.360;31.026;2024-01-10T09:28:05;1031.1;;;2.4;71
55858;BME280;41779;52.360;31.026;2024-01-10T09:32:51;1031.1;;;2.4;71.5
55858;BME280;41779;52.360;31.026;2024-01-10T09:37:35;1031.1;;;2.5;71.7
55858;BME280;41779;52.360;31.026;2024-01-10T09:43:15;1031.1;;;2.6;71.7
55858;BME280;41779;52.360;31.026;2024-01-10T09:47:52;1031.1;;;2.8;71.4
55858;BME280;41779;52.360;31.026;2024-01-10T09:52:38;1031.1;;;2.8;71.3
55858;BME280;41779;52.360;31.026;2024-01-10T09:57:35;1031.1;;;2.9;71.1
55858;BME280;41779;52.360;31.026;2024-01-10T10:03:01;1031.1;;;2.9;71
55858;BME280;41779;52.360;31.026;2024-01-10T10:08:15;1031.1;;;3;71.2
55858;BME280;41779;52.360;31.026;2024-01-10T10:13:01;1031.1;;;3;70.9
55858;BME280;41779;52.360;31.026;2024-01-10T10:18:05;1031.1;;;3;70.9
55858;BME280;41779;52.360;31.026;2024-01-10T10:22:27;1031.1;;;3.1;70.7
55858;BME280;41779;52.360;31.026;2024-01-10T10:27:53;1031.1;;;3.1;70.7
55858;BME280;41779;52.360;31.026;2024-01-10T10:33:17;1031.1;;;3.1;70.5
55858;BME280;41779;52.360;31.026;2024-01-10T10:37:52;1031.1;;;3.1;70.4
55858;BME280;41779;52.360;31.026;2024-01-10T10:42:53;1031.1;;;3.1;70.5
55858;BME280;41779;52.360;31.026;2024-01-10T10:47:36;1031.1;;;3.2;70.3
55858;BME280;41779;52.360;31.026;2024-01-10T10:53:02;1031.2;;;3.1;70.3
55858;BME280;41779;52.360;31.026;2024-01-10T10:58:15;1031.1;;;3.1;70.2
55858;BME280;41779;52.360;31.026;2024-01-10T11:03:03;1031.2;;;3.1;70.4
55858;BME280;41779;52.360;31.026;2024-01-10T11:08:05;1031.1;;;3.2;70.2
55858;BME280;41779;52.360;31.026;2024-01-10T11:12:45;1031.1;;;3.2;70.2
55858;BME280;41779;52.360;31.026;2024-01-10T11:17:37;1031;;;3.2;70.2
55858;BME280;41779;52.360;31.026;2024-01-10T11:23:28;1031;;;3.3;70
55858;BME280;41779;52.360;31.026;2024-01-10T11:27:27;1031;;;3.3;69.9
55858;BME280;41779;52.360;31.026;2024-01-10T11:32:47;1031;;;3.3;70
55858;BME280;41779;52.360;31.026;2024-01-10T11:37:59;1031.1;;;3.4;70.2
55858;BME280;41779;52.360;31.026;2024-01-10T11:43:13;1031.1;;;3.4;70.1
55858;BME280;41779;52.360;31.026;2024-01-10T11:48:13;1031.1;;;3.4;70.3
55858;BME280;41779;52.360;31.026;2024-01-10T11:52:52;1031.1;;;3.4;70.3
55858;BME280;41779;52.360;31.026;2024-01-10T11:58:07;1031;;;3.4;70.4
55858;BME280;41779;52.360;31.026;2024-01-10T12:02:29;1030.9;;;3.4;70.6
55858;BME280;41779;52.360;31.026;2024-01-10T12:07:50;1030.9;;;3.5;70.4
55858;BME280;41779;52.360;31.026;2024-01-10T12:13:13;1030.9;;;3.4;70.6
55858;BME280;41779;52.360;31.026;2024-01-10T12:17:43;1030.9;;;3.5;70.7
55858;BME280;41779;52.360;31.026;2024-01-10T12:22:52;1031;;;3.5;70.6
55858;BME280;41779;52.360;31.026;2024-01-10T12:27:27;1030.9;;;3.5;70.8
55858;BME280;41779;52.360;31.026;2024-01-10T12:33:00;1030.9;;;3.5;70.7
55858;BME280;41779;52.360;31.026;2024-01-10T12:38:13;1030.8;;;3.5;70.8
55858;BME280;41779;52.360;31.026;2024-01-10T12:43:01;1030.8;;;3.5;70.8
55858;BME280;41779;52.360;31.026;2024-01-10T12:47:35;1030.9;;;3.5;71.1
55858;BME280;41779;52.360;31.026;2024-01-10T12:52:45;1030.9;;;3.5;71
55858;BME280;41779;52.360;31.026;2024-01-10T12:57:27;1030.9;;;3.5;71.1
55858;BME280;41779;52.360;31.026;2024-01-10T13:03:16;1030.9;;;3.6;70.8
55858;BME280;41779;52.360;31.026;2024-01-10T13:07:51;1030.9;;;3.5;70.7
55858;BME280;41779;52.360;31.026;2024-01-10T13:12:45;1030.9;;;3.5;70.5
55858;BME280;41779;52.360;31.026;2024-01-10T13:17:33;1030.9;;;3.4;70.7
55858;BME280;41779;52.360;31.026;2024-01-10T13:22:52;1030.8;;;3.4;70.6
55858;BME280;41779;52.360;31.026;2024-01-10T13:28:12;1030.8;;;3.4;70.7
55858;BME280;41779;52.360;31.026;2024-01-10T13:32:37;1030.7;;;3.3;70.9
55858;BME280;41779;52.360;31.026;2024-01-10T13:38:04;1030.7;;;3.3;71.1
55858;BME280;41779;52.360;31.026;2024-01-10T13:42:45;1030.7;;;3.4;70.9
55858;BME280;41779;52.360;31.026;2024-01-10T13:47:57;1030.7;;;3.4;70.8
55858;BME280;41779;52.360;31.026;2024-01-10T13:53:13;1030.6;;;3.5;70.5
55858;BME280;41779;52.360;31.026;2024-01-10T13:57:27;1030.6;;;3.4;70.5
55858;BME280;41779;52.360;31.026;2024-01-10T14:02:27;1030.6;;;3.4;70.5
55858;BME280;41779;52.360;31.026;2024-01-10T14:07:28;1030.6;;;3.3;70.8
55858;BME280;41779;52.360;31.026;2024-01-10T14:12:59;1030.6;;;3.3;70.6
55858;BME280;41779;52.360;31.026;2024-01-10T14:18:13;1030.6;;;3.2;71.1
55858;BME280;41779;52.360;31.026;2024-01-10T14:23:00;1030.5;;;3.2;71.1
55858;BME280;41779;52.360;31.026;2024-01-10T14:28:03;1030.5;;;3.2;71.2
55858;BME280;41779;52.360;31.026;2024-01-10T14:32:27;1030.6;;;3.1;71.4
55858;BME280;41779;52.360;31.026;2024-01-10T14:37:27;1030.6;;;3.1;71.5
55858;BME280;41779;52.360;31.026;2024-01-10T14:43:13;1030.6;;;3.1;71.7
55858;BME280;41779;52.360;31.026;2024-01-10T14:47:49;1030.6;;;3.1;71.4
55858;BME280;41779;52.360;31.026;2024-01-10T14:52:43;1030.6;;;3.1;71.7
55858;BME280;41779;52.360;31.026;2024-01-10T14:57:33;1030.7;;;3.1;71.5
55858;BME280;41779;52.360;31.026;2024-01-10T15:03:00;1030.7;;;3;71.7
55858;BME280;41779;52.360;31.026;2024-01-10T15:08:13;1030.7;;;2.9;71.8
55858;BME280;41779;52.360;31.026;2024-01-10T15:12:57;1030.6;;;2.9;71.9
55858;BME280;41779;52.360;31.026;2024-01-10T15:18:04;1030.6;;;2.9;72.1
55858;BME280;41779;52.360;31.026;2024-01-10T15:23:13;1030.6;;;2.9;72.1
55858;BME280;41779;52.360;31.026;2024-01-10T15:27:50;1030.5;;;2.9;72.4
55858;BME280;41779;52.360;31.026;2024-01-10T15:33:03;1030.6;;;2.8;72.6
55858;BME280;41779;52.360;31.026;2024-01-10T15:37:27;1030.6;;;2.8;72.6
55858;BME280;41779;52.360;31.026;2024-01-10T15:42:27;1030.6;;;2.8;72.5
55858;BME280;41779;52.360;31.026;2024-01-10T15:47:36;1030.5;;;2.8;72.8
55858;BME280;41779;52.360;31.026;2024-01-10T15:52:36;1030.5;;;2.8;72.7
55858;BME280;41779;52.360;31.026;2024-01-10T15:58:15;1030.5;;;2.9;72.5
55858;BME280;41779;52.360;31.026;2024-01-10T16:03:16;1030.5;;;2.8;72.7
55858;BME280;41779;52.360;31.026;2024-01-10T16:07:53;1030.4;;;2.9;72.5
55858;BME280;41779;52.360;31.026;2024-01-10T16:13:14;1030.4;;;2.8;72.7
55858;BME280;41779;52.360;31.026;2024-01-10T16:17:28;1030.3;;;2.9;72.7
55858;BME280;41779;52.360;31.026;2024-01-10T16:22:47;1030.2;;;2.9;72.6
55858;BME280;41779;52.360;31.026;2024-01-10T16:27:56;1030.2;;;2.9;72.5
55858;BME280;41779;52.360;31.026;2024-01-10T16:32:27;1030.2;;;2.9;72.6
55858;BME280;41779;52.360;31.026;2024-01-10T16:37:27;1030.2;;;2.8;72.6
55858;BME280;41779;52.360;31.026;2024-01-10T16:42:33;1030.1;;;2.8;72.8
55858;BME280;41779;52.360;31.026;2024-01-10T16:48:14;1030;;;2.8;72.5
55858;BME280;41779;52.360;31.026;2024-01-10T16:53:12;1030;;;2.7;72.3
55858;BME280;41779;52.360;31.026;2024-01-10T16:58:06;1029.9;;;2.6;72.5
55858;BME280;41779;52.360;31.026;2024-01-10T17:03:16;1029.8;;;2.6;72.1
55858;BME280;41779;52.360;31.026;2024-01-10T17:07:27;1029.8;;;2.5;72.3
55858;BME280;41779;52.360;31.026;2024-01-10T17:13:05;1029.8;;;2.5;72.3
55858;BME280;41779;52.360;31.026;2024-01-10T17:17:28;1029.6;;;2.4;72
55858;BME280;41779;52.360;31.026;2024-01-10T17:22:54;1029.5;;;2.4;72.1
55858;BME280;41779;52.360;31.026;2024-01-10T17:27:40;1029.4;;;2.2;72.1
55858;BME280;41779;52.360;31.026;2024-01-10T17:32:28;1029.4;;;2.2;72
55858;BME280;41779;52.360;31.026;2024-01-10T17:38:14;1029.4;;;2.1;72.6
55858;BME280;41779;52.360;31.026;2024-01-10T17:43:16;1029.3;;;2.1;72.5
55858;BME280;41779;52.360;31.026;2024-01-10T17:48:04;1029.2;;;2.1;72.3
55858;BME280;41779;52.360;31.026;2024-01-10T17:53:14;1029.1;;;2.1;72.2
55858;BME280;41779;52.360;31.026;2024-01-10T17:57:28;1029.1;;;2.1;72.1
55858;BME280;41779;52.360;31.026;2024-01-10T18:02:48;1029;;;2.1;71.9
55858;BME280;41779;52.360;31.026;2024-01-10T18:07:50;1029.1;;;2.1;71.8
55858;BME280;41779;52.360;31.026;2024-01-10T18:12:34;1029.1;;;2.1;71.6
55858;BME280;41779;52.360;31.026;2024-01-10T18:17:28;1029.1;;;2.1;71.5
55858;BME280;41779;52.360;31.026;2024-01-10T18:22:36;1029.1;;;2;71.4
55858;BME280;41779;52.360;31.026;2024-01-10T18:28:16;1029;;;2;71.3
55858;BME280;41779;52.360;31.026;2024-01-10T18:33:16;1029;;;1.9;71.4
55858;BME280;41779;52.360;31.026;2024-01-10T18:37:32;1029;;;1.9;71.1
55858;BME280;41779;52.360;31.026;2024-01-10T18:43:14;1028.9;;;1.9;70.8
55858;BME280;41779;52.360;31.026;2024-01-10T18:47:52;1028.9;;;1.9;70.8
55858;BME280;41779;52.360;31.026;2024-01-10T18:53:06;1028.8;;;1.9;70.6
55858;BME280;41779;52.360;31.026;2024-01-10T18:57:36;1028.8;;;1.9;70.5
55858;BME280;41779;52.360;31.026;2024-01-10T19:02:28;1028.7;;;1.8;70.4
55858;BME280;41779;52.360;31.026;2024-01-10T19:07:34;1028.5;;;1.7;70.2
55858;BME280;41779;52.360;31.026;2024-01-10T19:12:44;1028.4;;;1.6;70.2
55858;BME280;41779;52.360;31.026;2024-01-10T19:18:14;1028.2;;;1.5;70.2
55858;BME280;41779;52.360;31.026;2024-01-10T19:23:14;1028.1;;;1.4;70.4
55858;BME280;41779;52.360;31.026;2024-01-10T19:28:04;1028;;;1.3;70.3
55858;BME280;41779;52.360;31.026;2024-01-10T19:33:14;1028.1;;;1.2;70.5
55858;BME280;41779;52.360;31.026;2024-01-10T19:37:52;1028;;;1.2;70.7
55858;BME280;41779;52.360;31.026;2024-01-10T19:43:06;1027.9;;;1.1;71
55858;BME280;41779;52.360;31.026;2024-01-10T19:47:28;1027.8;;;1;71.1
55858;BME280;41779;52.360;31.026;2024-01-10T19:52:28;1027.7;;;1;71.4
55858;BME280;41779;52.360;31.026;2024-01-10T19:57:36;1027.5;;;0.9;72
55858;BME280;41779;52.360;31.026;2024-01-10T20:02:56;1027.4;;;0.8;72.5
55858;BME280;41779;52.360;31.026;2024-01-10T20:07:56;1027.4;;;0.8;72.8
55858;BME280;41779;52.360;31.026;2024-01-10T20:12:58;1027.3;;;0.8;72.9
55858;BME280;41779;52.360;31.026;2024-01-10T20:18:12;1027.2;;;0.8;73.3
55858;BME280;41779;52.360;31.026;2024-01-10T20:23:12;1027.2;;;0.8;73.3
55858;BME280;41779;52.360;31.026;2024-01-10T20:27:48;1027.1;;;0.8;73.4
55858;BME280;41779;52.360;31.026;2024-01-10T20:33:12;1027;;;0.7;73.5
55858;BME280;41779;52.360;31.026;2024-01-10T20:37:42;1026.9;;;0.7;73.5
55858;BME280;41779;52.360;31.026;2024-01-10T20:42:28;1026.7;;;0.7;73.5
55858;BME280;41779;52.360;31.026;2024-01-10T20:47:56;1026.6;;;0.7;73.6
55858;BME280;41779;52.360;31.026;2024-01-10T20:53:12;1026.5;;;0.7;73.6
55858;BME280;41779;52.360;31.026;2024-01-10T20:57:36;1026.3;;;0.6;73.7
55858;BME280;41779;52.360;31.026;2024-01-10T21:02:56;1026.2;;;0.6;73.6
55858;BME280;41779;52.360;31.026;2024-01-10T21:08:14;1026.2;;;0.6;73.6
55858;BME280;41779;52.360;31.026;2024-01-10T21:12:58;1026.1;;;0.6;73.5
55858;BME280;41779;52.360;31.026;2024-01-10T21:17:38;1026.1;;;0.5;73.7
55858;BME280;41779;52.360;31.026;2024-01-10T21:23:14;1026.1;;;0.5;73.9
55858;BME280;41779;52.360;31.026;2024-01-10T21:27:28;1026;;;0.5;73.9
55858;BME280;41779;52.360;31.026;2024-01-10T21:32:30;1025.9;;;0.5;74
55858;BME280;41779;52.360;31.026;2024-01-10T21:38:14;1025.9;;;0.5;74.2
55858;BME280;41779;52.360;31.026;2024-01-10T21:42:42;1025.8;;;0.6;74.2
55858;BME280;41779;52.360;31.026;2024-01-10T21:47:56;1025.6;;;0.6;73.8
55858;BME280;41779;52.360;31.026;2024-01-10T21:52:56;1025.4;;;0.6;73.7
55858;BME280;41779;52.360;31.026;2024-01-10T21:58:14;1025.2;;;0.6;73.7
55858;BME280;41779;52.360;31.026;2024-01-10T22:03:14;1025.1;;;0.6;73.8
55858;BME280;41779;52.360;31.026;2024-01-10T22:07:30;1025;;;0.6;73.7
55858;BME280;41779;52.360;31.026;2024-01-10T22:13:16;1025.1;;;0.6;73.6
55858;BME280;41779;52.360;31.026;2024-01-10T22:17:34;1025;;;0.6;73.8
55858;BME280;41779;52.360;31.026;2024-01-10T22:22:36;1024.8;;;0.6;73.8
55858;BME280;41779;52.360;31.026;2024-01-10T22:27:56;1024.6;;;0.6;73.8
55858;BME280;41779;52.360;31.026;2024-01-10T22:32:42;1024.5;;;0.5;73.9
55858;BME280;41779;52.360;31.026;2024-01-10T22:37:56;1024.4;;;0.6;74.1
55858;BME280;41779;52.360;31.026;2024-01-10T22:42:54;1024.4;;;0.5;74.2
55858;BME280;41779;52.360;31.026;2024-01-10T22:48:14;1024.3;;;0.6;74.4
55858;BME280;41779;52.360;31.026;2024-01-10T22:53:14;1024.3;;;0.6;74.2
55858;BME280;41779;52.360;31.026;2024-01-10T22:57:52;1024.3;;;0.7;74.2
55858;BME280;41779;52.360;31.026;2024-01-10T23:03:12;1024.3;;;0.7;74.4
55858;BME280;41779;52.360;31.026;2024-01-10T23:07:36;1024.1;;;0.7;74.5
55858;BME280;41779;52.360;31.026;2024-01-10T23:12:28;1023.9;;;0.8;74.5
55858;BME280;41779;52.360;31.026;2024-01-10T23:17:42;1023.8;;;0.8;74.3
55858;BME280;41779;52.360;31.026;2024-01-10T23:22:34;1023.7;;;0.9;74.2
55858;BME280;41779;52.360;31.026;2024-01-10T23:27:50;1023.6;;;0.9;73.9
55858;BME280;41779;52.360;31.026;2024-01-10T23:38:16;1023.6;;;0.9;74
55858;BME280;41779;52.360;31.026;2024-01-10T23:43:14;1023.1;;;0.9;74.5
55858;BME280;41779;52.360;31.026;2024-01-10T23:47:54;1022.9;;;0.9;74.6
55858;BME280;41779;52.360;31.026;2024-01-10T23:53:14;1022.6;;;0.9;74.5
55858;BME280;41779;52.360;31.026;2024-01-10T23:57:34;1022.6;;;0.9;74.5
